Adah, Pennsylvania
Current Conditions -  °F | °C
As of 3:53 PM on Friday 19 Dec 2014 (Local Time) from KMGW Reporting Station
Overcast Overcast  
Wind Chill: 26°   Ceiling: 2400
Heat Index: 31°   Visibility: 10mi
Dew Point: 20°   Wind: 5mph
Humidity: 64%   Direction: NA
Pressure: 30.23"   Gusts: NA
Location:  39.9°N, 79.92°W
Report Text: KMGW 192053Z VRB04KT 10SM OVC024 M01/M07 A3023 RMK AO2 SLP250 T10061067 53009
Loading
Personal Weather Stations






























Interactive Weather Map New forecast layout! Learn more

10-Day Weather Forecast

Advertisements
Track Severe Weather on mobile